sensor_id;sensor_type;location;lat;lon;timestamp;pressure;altitude;pressure_sealevel;temperature;humidity
9281;BME280;4679;47.966;7.958;2023-06-05T05:49:39;97154.94;;;14.87;64.65
9281;BME280;4679;47.966;7.958;2023-06-05T05:51:41;97154.13;;;14.97;64.56
9281;BME280;4679;47.966;7.958;2023-06-05T05:53:42;97157.03;;;15.05;64.28
9281;BME280;4679;47.966;7.958;2023-06-05T05:55:44;97151.66;;;15.16;63.61
9281;BME280;4679;47.966;7.958;2023-06-05T05:57:45;97153.53;;;15.25;63.48
9281;BME280;4679;47.966;7.958;2023-06-05T05:59:47;97151.88;;;15.29;63.70
9281;BME280;4679;47.966;7.958;2023-06-05T06:01:49;97148.41;;;15.34;64.17
9281;BME280;4679;47.966;7.958;2023-06-05T06:03:51;97155.88;;;15.42;63.66
9281;BME280;4679;47.966;7.958;2023-06-05T06:05:54;97157.72;;;15.46;63.51
9281;BME280;4679;47.966;7.958;2023-06-05T06:07:56;97158.22;;;15.54;63.65
9281;BME280;4679;47.966;7.958;2023-06-05T06:09:58;97155.53;;;15.59;63.56
9281;BME280;4679;47.966;7.958;2023-06-05T06:12:00;97156.31;;;15.69;63.92
9281;BME280;4679;47.966;7.958;2023-06-05T06:14:06;97159.22;;;15.78;63.68
9281;BME280;4679;47.966;7.958;2023-06-05T06:16:10;97150.63;;;15.86;63.60
9281;BME280;4679;47.966;7.958;2023-06-05T06:18:12;97154.03;;;15.92;63.77
9281;BME280;4679;47.966;7.958;2023-06-05T06:20:13;97154.28;;;16.00;63.49
9281;BME280;4679;47.966;7.958;2023-06-05T06:22:17;97161.19;;;16.06;63.45
9281;BME280;4679;47.966;7.958;2023-06-05T06:24:19;97158.47;;;16.11;63.81
9281;BME280;4679;47.966;7.958;2023-06-05T06:26:22;97162.75;;;16.17;63.62
9281;BME280;4679;47.966;7.958;2023-06-05T06:28:23;97162.13;;;16.26;63.48
9281;BME280;4679;47.966;7.958;2023-06-05T06:30:25;97166.66;;;16.30;63.64
9281;BME280;4679;47.966;7.958;2023-06-05T06:32:27;97167.41;;;16.36;62.83
9281;BME280;4679;47.966;7.958;2023-06-05T06:34:29;97163.63;;;16.42;62.80
9281;BME280;4679;47.966;7.958;2023-06-05T06:36:31;97157.44;;;16.46;63.02
9281;BME280;4679;47.966;7.958;2023-06-05T06:38:34;97153.63;;;16.52;62.99
9281;BME280;4679;47.966;7.958;2023-06-05T06:40:36;97155.19;;;16.59;62.82
9281;BME280;4679;47.966;7.958;2023-06-05T06:42:37;97167.78;;;16.63;62.47
9281;BME280;4679;47.966;7.958;2023-06-05T06:44:39;97170.91;;;16.70;61.92
9281;BME280;4679;47.966;7.958;2023-06-05T06:46:41;97164.44;;;16.76;62.08
9281;BME280;4679;47.966;7.958;2023-06-05T06:48:43;97159.78;;;16.87;61.43
9281;BME280;4679;47.966;7.958;2023-06-05T06:50:45;97164.75;;;16.99;61.38
9281;BME280;4679;47.966;7.958;2023-06-05T06:52:47;97166.03;;;17.06;60.98
9281;BME280;4679;47.966;7.958;2023-06-05T06:54:50;97156.34;;;17.10;60.83
9281;BME280;4679;47.966;7.958;2023-06-05T06:56:52;97154.91;;;17.18;61.26
9281;BME280;4679;47.966;7.958;2023-06-05T06:58:54;97152.41;;;17.27;60.92
9281;BME280;4679;47.966;7.958;2023-06-05T07:00:56;97156.34;;;17.34;60.24
9281;BME280;4679;47.966;7.958;2023-06-05T07:02:57;97156.59;;;17.38;60.65
9281;BME280;4679;47.966;7.958;2023-06-05T07:04:59;97158.34;;;17.47;60.11
9281;BME280;4679;47.966;7.958;2023-06-05T07:07:01;97159.59;;;17.55;60.23
9281;BME280;4679;47.966;7.958;2023-06-05T07:09:03;97156.56;;;17.62;60.30
9281;BME280;4679;47.966;7.958;2023-06-05T07:11:06;97153.28;;;17.70;60.13
9281;BME280;4679;47.966;7.958;2023-06-05T07:13:07;97161.75;;;17.77;59.75
9281;BME280;4679;47.966;7.958;2023-06-05T07:15:10;97155.75;;;17.85;59.63
9281;BME280;4679;47.966;7.958;2023-06-05T07:17:12;97151.69;;;17.87;59.88
9281;BME280;4679;47.966;7.958;2023-06-05T07:19:15;97150.53;;;17.93;59.69
9281;BME280;4679;47.966;7.958;2023-06-05T07:21:17;97149.66;;;17.98;59.53
9281;BME280;4679;47.966;7.958;2023-06-05T07:23:18;97150.19;;;18.00;59.29
9281;BME280;4679;47.966;7.958;2023-06-05T07:25:20;97155.09;;;18.12;59.43
9281;BME280;4679;47.966;7.958;2023-06-05T07:27:26;97158.53;;;18.17;59.32
9281;BME280;4679;47.966;7.958;2023-06-05T07:29:29;97150.09;;;18.24;58.76
9281;BME280;4679;47.966;7.958;2023-06-05T07:31:30;97141.56;;;18.36;58.63
9281;BME280;4679;47.966;7.958;2023-06-05T07:33:32;97144.81;;;18.51;58.34
9281;BME280;4679;47.966;7.958;2023-06-05T07:35:34;97151.69;;;18.63;58.05
9281;BME280;4679;47.966;7.958;2023-06-05T07:37:35;97145.53;;;18.76;58.01
9281;BME280;4679;47.966;7.958;2023-06-05T07:39:37;97138.66;;;18.83;57.83
9281;BME280;4679;47.966;7.958;2023-06-05T07:41:39;97148.84;;;18.86;57.61
9281;BME280;4679;47.966;7.958;2023-06-05T07:43:42;97141.66;;;18.95;57.45
9281;BME280;4679;47.966;7.958;2023-06-05T07:45:44;97140.13;;;19.08;57.27
9281;BME280;4679;47.966;7.958;2023-06-05T07:47:45;97129.44;;;19.17;56.98
9281;BME280;4679;47.966;7.958;2023-06-05T07:49:56;97132.84;;;19.36;56.97
9281;BME280;4679;47.966;7.958;2023-06-05T07:51:59;97137.97;;;19.51;56.70
9281;BME280;4679;47.966;7.958;2023-06-05T07:54:01;97140.22;;;19.58;56.42
9281;BME280;4679;47.966;7.958;2023-06-05T07:56:03;97144.13;;;19.65;56.09
9281;BME280;4679;47.966;7.958;2023-06-05T07:58:05;97132.56;;;19.65;56.12
9281;BME280;4679;47.966;7.958;2023-06-05T08:00:09;97129.44;;;19.72;55.90
9281;BME280;4679;47.966;7.958;2023-06-05T08:02:11;97122.06;;;19.77;55.92
9281;BME280;4679;47.966;7.958;2023-06-05T08:04:13;97121.44;;;19.94;55.49
9281;BME280;4679;47.966;7.958;2023-06-05T08:06:15;97120.78;;;20.11;55.23
9281;BME280;4679;47.966;7.958;2023-06-05T08:08:17;97120.25;;;20.22;55.24
9281;BME280;4679;47.966;7.958;2023-06-05T08:10:19;97119.53;;;20.30;54.93
9281;BME280;4679;47.966;7.958;2023-06-05T08:12:20;97120.09;;;20.41;54.81
9281;BME280;4679;47.966;7.958;2023-06-05T08:14:22;97117.44;;;20.50;54.74
9281;BME280;4679;47.966;7.958;2023-06-05T08:16:25;97119.41;;;20.58;54.69
9281;BME280;4679;47.966;7.958;2023-06-05T08:18:27;97117.44;;;20.72;54.22
9281;BME280;4679;47.966;7.958;2023-06-05T08:20:29;97118.03;;;20.91;54.21
9281;BME280;4679;47.966;7.958;2023-06-05T08:22:30;97119.28;;;20.94;53.56
9281;BME280;4679;47.966;7.958;2023-06-05T08:24:32;97113.66;;;21.13;53.83
9281;BME280;4679;47.966;7.958;2023-06-05T08:26:35;97119.44;;;21.20;53.52
9281;BME280;4679;47.966;7.958;2023-06-05T08:28:38;97113.44;;;21.23;53.48
9281;BME280;4679;47.966;7.958;2023-06-05T08:30:40;97110.41;;;21.24;53.14
9281;BME280;4679;47.966;7.958;2023-06-05T08:32:43;97111.03;;;21.21;53.32
9281;BME280;4679;47.966;7.958;2023-06-05T08:34:44;97108.84;;;21.23;53.06
9281;BME280;4679;47.966;7.958;2023-06-05T08:36:46;97111.69;;;21.27;53.06
9281;BME280;4679;47.966;7.958;2023-06-05T08:38:47;97107.28;;;21.39;52.86
9281;BME280;4679;47.966;7.958;2023-06-05T08:40:52;97106.69;;;21.60;52.53
9281;BME280;4679;47.966;7.958;2023-06-05T08:42:59;97105.78;;;21.82;52.03
9281;BME280;4679;47.966;7.958;2023-06-05T08:45:01;97105.78;;;21.90;52.10
9281;BME280;4679;47.966;7.958;2023-06-05T08:47:03;97111.19;;;21.90;51.83
9281;BME280;4679;47.966;7.958;2023-06-05T08:49:08;97101.00;;;21.87;52.05
9281;BME280;4679;47.966;7.958;2023-06-05T08:51:13;97110.09;;;22.00;51.53
9281;BME280;4679;47.966;7.958;2023-06-05T08:53:16;97112.81;;;22.17;51.25
9281;BME280;4679;47.966;7.958;2023-06-05T08:55:18;97108.69;;;22.28;51.16
9281;BME280;4679;47.966;7.958;2023-06-05T08:57:20;97102.19;;;22.29;51.08
9281;BME280;4679;47.966;7.958;2023-06-05T08:59:22;97098.38;;;22.30;50.82
9281;BME280;4679;47.966;7.958;2023-06-05T09:01:25;97100.09;;;22.26;51.05
9281;BME280;4679;47.966;7.958;2023-06-05T09:03:27;97103.44;;;22.40;50.58
9281;BME280;4679;47.966;7.958;2023-06-05T09:05:30;97092.09;;;22.64;50.17
9281;BME280;4679;47.966;7.958;2023-06-05T09:07:32;97096.84;;;22.67;50.42
9281;BME280;4679;47.966;7.958;2023-06-05T09:09:34;97096.34;;;22.91;50.07
9281;BME280;4679;47.966;7.958;2023-06-05T09:11:36;97095.34;;;23.04;49.57
9281;BME280;4679;47.966;7.958;2023-06-05T09:13:44;97093.75;;;23.03;49.33
9281;BME280;4679;47.966;7.958;2023-06-05T09:15:49;97101.00;;;22.82;49.86
9281;BME280;4679;47.966;7.958;2023-06-05T09:18:08;97100.19;;;22.90;49.50
9281;BME280;4679;47.966;7.958;2023-06-05T09:20:22;97088.81;;;23.05;49.20
9281;BME280;4679;47.966;7.958;2023-06-05T09:22:33;97100.47;;;22.97;49.27
9281;BME280;4679;47.966;7.958;2023-06-05T09:24:36;97095.78;;;23.15;48.94
9281;BME280;4679;47.966;7.958;2023-06-05T09:26:49;97095.78;;;23.44;48.39
9281;BME280;4679;47.966;7.958;2023-06-05T09:28:54;97093.59;;;23.38;48.81
9281;BME280;4679;47.966;7.958;2023-06-05T09:30:59;97090.44;;;23.36;48.28
9281;BME280;4679;47.966;7.958;2023-06-05T09:33:08;97091.72;;;23.30;48.67
9281;BME280;4679;47.966;7.958;2023-06-05T09:35:15;97087.03;;;23.47;48.19
9281;BME280;4679;47.966;7.958;2023-06-05T09:37:17;97085.25;;;23.81;47.78
9281;BME280;4679;47.966;7.958;2023-06-05T09:39:21;97083.25;;;23.90;47.41
9281;BME280;4679;47.966;7.958;2023-06-05T09:41:25;97080.94;;;24.01;47.46
9281;BME280;4679;47.966;7.958;2023-06-05T09:43:26;97082.06;;;24.00;47.44
9281;BME280;4679;47.966;7.958;2023-06-05T09:45:41;97083.91;;;24.08;47.50
9281;BME280;4679;47.966;7.958;2023-06-05T09:47:43;97083.00;;;24.25;46.99
9281;BME280;4679;47.966;7.958;2023-06-05T09:49:47;97086.69;;;24.41;46.88
9281;BME280;4679;47.966;7.958;2023-06-05T09:51:49;97089.25;;;24.58;46.89
9281;BME280;4679;47.966;7.958;2023-06-05T09:53:51;97084.47;;;24.55;46.49
9281;BME280;4679;47.966;7.958;2023-06-05T09:55:54;97083.56;;;24.51;46.60
9281;BME280;4679;47.966;7.958;2023-06-05T09:57:57;97080.78;;;24.72;46.27
9281;BME280;4679;47.966;7.958;2023-06-05T10:00:02;97082.34;;;24.61;46.23
9281;BME280;4679;47.966;7.958;2023-06-05T10:02:06;97086.13;;;24.80;46.58
9281;BME280;4679;47.966;7.958;2023-06-05T10:04:10;97076.63;;;24.86;46.41
9281;BME280;4679;47.966;7.958;2023-06-05T10:06:12;97071.75;;;24.80;46.29
9281;BME280;4679;47.966;7.958;2023-06-05T10:08:15;97086.03;;;24.89;46.23
9281;BME280;4679;47.966;7.958;2023-06-05T10:10:17;97073.97;;;24.99;46.22
9281;BME280;4679;47.966;7.958;2023-06-05T10:12:20;97081.31;;;25.10;45.68
9281;BME280;4679;47.966;7.958;2023-06-05T10:14:24;97084.63;;;25.28;45.37
9281;BME280;4679;47.966;7.958;2023-06-05T10:16:26;97075.56;;;25.36;45.41
9281;BME280;4679;47.966;7.958;2023-06-05T10:18:29;97078.25;;;25.36;45.81
9281;BME280;4679;47.966;7.958;2023-06-05T10:20:32;97082.34;;;25.54;44.88
9281;BME280;4679;47.966;7.958;2023-06-05T10:22:40;97063.31;;;25.67;44.62
9281;BME280;4679;47.966;7.958;2023-06-05T10:24:44;97080.66;;;25.74;44.69
9281;BME280;4679;47.966;7.958;2023-06-05T10:27:16;97074.34;;;25.98;44.81
9281;BME280;4679;47.966;7.958;2023-06-05T10:29:35;97066.78;;;25.91;44.38
9281;BME280;4679;47.966;7.958;2023-06-05T10:31:45;97065.31;;;25.94;44.78
9281;BME280;4679;47.966;7.958;2023-06-05T10:34:02;97066.25;;;26.14;44.05
9281;BME280;4679;47.966;7.958;2023-06-05T10:36:12;97066.91;;;25.95;44.42
9281;BME280;4679;47.966;7.958;2023-06-05T10:38:21;97066.84;;;25.67;44.63
9281;BME280;4679;47.966;7.958;2023-06-05T10:40:24;97075.00;;;25.79;44.39
9281;BME280;4679;47.966;7.958;2023-06-05T10:42:27;97064.88;;;25.92;43.79
9281;BME280;4679;47.966;7.958;2023-06-05T10:44:39;97061.94;;;25.85;43.77
9281;BME280;4679;47.966;7.958;2023-06-05T10:46:42;97067.84;;;25.75;43.91
9281;BME280;4679;47.966;7.958;2023-06-05T10:49:09;97055.09;;;25.63;43.65
9281;BME280;4679;47.966;7.958;2023-06-05T10:51:31;97059.31;;;25.88;43.30
9281;BME280;4679;47.966;7.958;2023-06-05T10:53:45;97061.50;;;25.71;43.29
9281;BME280;4679;47.966;7.958;2023-06-05T10:55:47;97061.63;;;25.74;43.11
9281;BME280;4679;47.966;7.958;2023-06-05T10:58:04;97060.94;;;25.53;43.55
9281;BME280;4679;47.966;7.958;2023-06-05T11:00:09;97062.06;;;25.76;43.47
9281;BME280;4679;47.966;7.958;2023-06-05T11:02:26;97066.53;;;26.09;42.86
9281;BME280;4679;47.966;7.958;2023-06-05T11:05:07;97065.50;;;26.41;42.18
9281;BME280;4679;47.966;7.958;2023-06-05T11:07:14;97071.13;;;26.48;42.48
9281;BME280;4679;47.966;7.958;2023-06-05T11:09:16;97066.25;;;26.54;41.58
9281;BME280;4679;47.966;7.958;2023-06-05T11:11:18;97060.00;;;26.53;41.68
9281;BME280;4679;47.966;7.958;2023-06-05T11:13:20;97069.59;;;26.63;41.70
9281;BME280;4679;47.966;7.958;2023-06-05T11:15:42;97064.78;;;26.72;41.66
9281;BME280;4679;47.966;7.958;2023-06-05T11:17:48;97061.63;;;26.86;40.73
9281;BME280;4679;47.966;7.958;2023-06-05T11:19:50;97056.34;;;26.93;40.50
9281;BME280;4679;47.966;7.958;2023-06-05T11:22:03;97062.97;;;27.08;40.57
9281;BME280;4679;47.966;7.958;2023-06-05T11:24:15;97057.97;;;26.94;40.99
9281;BME280;4679;47.966;7.958;2023-06-05T11:26:38;97053.78;;;26.69;40.65
9281;BME280;4679;47.966;7.958;2023-06-05T11:28:42;97060.00;;;26.97;40.67
9281;BME280;4679;47.966;7.958;2023-06-05T11:30:45;97055.56;;;26.92;40.85
9281;BME280;4679;47.966;7.958;2023-06-05T11:32:47;97055.09;;;26.75;40.72
9281;BME280;4679;47.966;7.958;2023-06-05T11:34:50;97051.34;;;26.79;40.58
9281;BME280;4679;47.966;7.958;2023-06-05T11:37:16;97054.44;;;26.93;40.05
9281;BME280;4679;47.966;7.958;2023-06-05T11:39:18;97058.31;;;27.24;40.04
9281;BME280;4679;47.966;7.958;2023-06-05T11:41:21;97052.41;;;27.22;39.89
9281;BME280;4679;47.966;7.958;2023-06-05T11:43:25;97040.03;;;27.09;39.58
9281;BME280;4679;47.966;7.958;2023-06-05T11:45:26;97052.75;;;27.20;39.77
9281;BME280;4679;47.966;7.958;2023-06-05T11:47:28;97048.97;;;27.25;39.21
9281;BME280;4679;47.966;7.958;2023-06-05T11:49:30;97044.44;;;27.13;39.01
9281;BME280;4679;47.966;7.958;2023-06-05T11:51:32;97043.09;;;27.07;38.94
9281;BME280;4679;47.966;7.958;2023-06-05T11:53:43;97040.47;;;27.26;38.83
9281;BME280;4679;47.966;7.958;2023-06-05T11:55:45;97034.72;;;27.63;38.59
9281;BME280;4679;47.966;7.958;2023-06-05T11:58:06;97033.81;;;27.94;37.71
9281;BME280;4679;47.966;7.958;2023-06-05T12:00:09;97036.50;;;27.75;38.14
9281;BME280;4679;47.966;7.958;2023-06-05T12:02:11;97029.41;;;27.89;38.15
9281;BME280;4679;47.966;7.958;2023-06-05T12:04:13;97025.69;;;27.78;37.84
9281;BME280;4679;47.966;7.958;2023-06-05T12:06:16;97033.50;;;27.45;38.11
9281;BME280;4679;47.966;7.958;2023-06-05T12:08:21;97030.75;;;27.60;37.67
9281;BME280;4679;47.966;7.958;2023-06-05T12:10:33;97022.16;;;27.78;37.34
9281;BME280;4679;47.966;7.958;2023-06-05T12:12:49;97028.16;;;27.67;37.30
9281;BME280;4679;47.966;7.958;2023-06-05T12:14:51;97026.53;;;27.47;37.41
9281;BME280;4679;47.966;7.958;2023-06-05T12:16:54;97026.84;;;27.26;37.38
9281;BME280;4679;47.966;7.958;2023-06-05T12:18:56;97021.81;;;27.28;36.88
9281;BME280;4679;47.966;7.958;2023-06-05T12:20:57;97018.28;;;27.44;36.49
9281;BME280;4679;47.966;7.958;2023-06-05T12:22:59;97026.19;;;27.49;36.85
9281;BME280;4679;47.966;7.958;2023-06-05T12:25:14;97021.00;;;27.59;36.43
9281;BME280;4679;47.966;7.958;2023-06-05T12:27:29;97017.59;;;27.66;36.44
9281;BME280;4679;47.966;7.958;2023-06-05T12:29:33;97016.31;;;27.60;36.33
9281;BME280;4679;47.966;7.958;2023-06-05T12:31:36;97011.41;;;27.50;36.13
9281;BME280;4679;47.966;7.958;2023-06-05T12:33:46;97018.81;;;27.49;36.18
9281;BME280;4679;47.966;7.958;2023-06-05T12:35:47;97008.22;;;27.63;36.05
9281;BME280;4679;47.966;7.958;2023-06-05T12:37:50;97006.06;;;27.73;35.25
9281;BME280;4679;47.966;7.958;2023-06-05T12:39:51;97004.38;;;27.49;35.55
9281;BME280;4679;47.966;7.958;2023-06-05T12:41:54;96999.47;;;27.39;36.04
9281;BME280;4679;47.966;7.958;2023-06-05T12:44:00;97003.53;;;27.29;36.09
9281;BME280;4679;47.966;7.958;2023-06-05T12:46:05;96999.34;;;27.51;35.71
9281;BME280;4679;47.966;7.958;2023-06-05T12:48:07;96991.50;;;28.04;35.22
9281;BME280;4679;47.966;7.958;2023-06-05T12:50:11;97001.81;;;28.52;34.64
9281;BME280;4679;47.966;7.958;2023-06-05T12:52:13;96998.41;;;28.59;34.40
9281;BME280;4679;47.966;7.958;2023-06-05T12:54:15;96998.88;;;28.84;34.45
9281;BME280;4679;47.966;7.958;2023-06-05T12:56:19;96989.97;;;28.67;34.52
9281;BME280;4679;47.966;7.958;2023-06-05T12:58:25;96996.53;;;28.40;34.70
9281;BME280;4679;47.966;7.958;2023-06-05T13:00:27;96992.75;;;28.48;34.81
9281;BME280;4679;47.966;7.958;2023-06-05T13:02:29;96986.81;;;28.88;34.32
9281;BME280;4679;47.966;7.958;2023-06-05T13:04:33;96983.00;;;29.19;34.09
9281;BME280;4679;47.966;7.958;2023-06-05T13:06:35;96977.53;;;29.19;33.99
9281;BME280;4679;47.966;7.958;2023-06-05T13:08:37;96985.38;;;28.72;34.25
9281;BME280;4679;47.966;7.958;2023-06-05T13:10:39;96983.16;;;28.16;34.77
9281;BME280;4679;47.966;7.958;2023-06-05T13:12:41;96988.06;;;28.07;35.03
9281;BME280;4679;47.966;7.958;2023-06-05T13:14:43;96991.84;;;28.41;34.31
9281;BME280;4679;47.966;7.958;2023-06-05T13:16:46;96985.63;;;28.40;34.16
9281;BME280;4679;47.966;7.958;2023-06-05T13:18:48;96981.41;;;28.23;34.24
9281;BME280;4679;47.966;7.958;2023-06-05T13:20:50;96975.22;;;27.88;34.99
9281;BME280;4679;47.966;7.958;2023-06-05T13:22:51;96974.44;;;28.26;34.44
9281;BME280;4679;47.966;7.958;2023-06-05T13:24:53;96973.94;;;28.85;33.57
9281;BME280;4679;47.966;7.958;2023-06-05T13:26:55;96972.97;;;28.78;33.61
9281;BME280;4679;47.966;7.958;2023-06-05T13:28:56;96975.44;;;28.83;33.67
9281;BME280;4679;47.966;7.958;2023-06-05T13:30:58;96966.34;;;28.79;33.25
9281;BME280;4679;47.966;7.958;2023-06-05T13:33:03;96971.63;;;28.45;33.88
9281;BME280;4679;47.966;7.958;2023-06-05T13:35:06;96966.16;;;28.03;34.40
9281;BME280;4679;47.966;7.958;2023-06-05T13:37:08;96975.41;;;28.18;34.14
9281;BME280;4679;47.966;7.958;2023-06-05T13:39:10;96966.75;;;28.54;33.81
9281;BME280;4679;47.966;7.958;2023-06-05T13:41:12;96948.41;;;28.32;33.78
9281;BME280;4679;47.966;7.958;2023-06-05T13:43:14;96955.81;;;28.12;33.85
9281;BME280;4679;47.966;7.958;2023-06-05T13:45:15;96947.91;;;28.26;33.74
9281;BME280;4679;47.966;7.958;2023-06-05T13:47:17;96952.53;;;28.45;33.65
9281;BME280;4679;47.966;7.958;2023-06-05T13:49:20;96944.06;;;28.08;33.81
9281;BME280;4679;47.966;7.958;2023-06-05T13:51:22;96945.25;;;28.30;33.70
9281;BME280;4679;47.966;7.958;2023-06-05T13:53:23;96943.31;;;28.53;33.48
9281;BME280;4679;47.966;7.958;2023-06-05T13:55:25;96943.22;;;28.73;33.36
9281;BME280;4679;47.966;7.958;2023-06-05T13:57:27;96948.19;;;28.41;33.63
9281;BME280;4679;47.966;7.958;2023-06-05T13:59:29;96941.25;;;28.47;33.75
9281;BME280;4679;47.966;7.958;2023-06-05T14:01:31;96939.06;;;28.14;33.41
9281;BME280;4679;47.966;7.958;2023-06-05T14:03:33;96938.09;;;27.83;33.78
9281;BME280;4679;47.966;7.958;2023-06-05T14:05:36;96933.47;;;27.64;34.02
9281;BME280;4679;47.966;7.958;2023-06-05T14:07:38;96936.03;;;27.57;33.89
9281;BME280;4679;47.966;7.958;2023-06-05T14:09:40;96934.41;;;27.37;34.51
9281;BME280;4679;47.966;7.958;2023-06-05T14:11:42;96931.06;;;27.44;34.32
9281;BME280;4679;47.966;7.958;2023-06-05T14:13:44;96934.34;;;27.34;34.34
9281;BME280;4679;47.966;7.958;2023-06-05T14:15:46;96934.25;;;27.30;34.01
9281;BME280;4679;47.966;7.958;2023-06-05T14:17:49;96934.69;;;27.32;33.97
9281;BME280;4679;47.966;7.958;2023-06-05T14:19:51;96925.44;;;27.17;34.32
9281;BME280;4679;47.966;7.958;2023-06-05T14:21:55;96932.47;;;27.18;33.74
9281;BME280;4679;47.966;7.958;2023-06-05T14:23:57;96926.09;;;27.30;33.68
9281;BME280;4679;47.966;7.958;2023-06-05T14:25:58;96921.44;;;27.30;33.98
9281;BME280;4679;47.966;7.958;2023-06-05T14:28:00;96927.63;;;27.47;33.75
9281;BME280;4679;47.966;7.958;2023-06-05T14:30:02;96924.78;;;27.59;33.60
9281;BME280;4679;47.966;7.958;2023-06-05T14:32:05;96922.00;;;27.40;33.52
9281;BME280;4679;47.966;7.958;2023-06-05T14:35:31;96914.13;;;27.00;34.28
9281;BME280;4679;47.966;7.958;2023-06-05T14:37:33;96919.28;;;27.05;34.34
9281;BME280;4679;47.966;7.958;2023-06-05T14:39:35;96918.31;;;27.13;34.02
9281;BME280;4679;47.966;7.958;2023-06-05T14:41:36;96917.16;;;27.14;34.06
9281;BME280;4679;47.966;7.958;2023-06-05T14:43:38;96918.53;;;27.23;33.56
9281;BME280;4679;47.966;7.958;2023-06-05T14:45:40;96913.88;;;27.24;33.95
9281;BME280;4679;47.966;7.958;2023-06-05T14:47:42;96908.34;;;27.20;34.07
9281;BME280;4679;47.966;7.958;2023-06-05T14:49:45;96919.41;;;27.27;34.08
9281;BME280;4679;47.966;7.958;2023-06-05T14:51:48;96905.94;;;27.54;33.55
9281;BME280;4679;47.966;7.958;2023-06-05T14:53:49;96904.50;;;27.41;33.71
9281;BME280;4679;47.966;7.958;2023-06-05T14:55:51;96903.00;;;27.43;33.98
9281;BME280;4679;47.966;7.958;2023-06-05T14:57:53;96904.50;;;27.41;34.37
9281;BME280;4679;47.966;7.958;2023-06-05T14:59:54;96901.84;;;27.25;34.33
9281;BME280;4679;47.966;7.958;2023-06-05T15:01:56;96905.66;;;27.05;34.61
9281;BME280;4679;47.966;7.958;2023-06-05T15:03:58;96907.41;;;27.13;34.71
9281;BME280;4679;47.966;7.958;2023-06-05T15:05:59;96906.47;;;27.05;34.33
9281;BME280;4679;47.966;7.958;2023-06-05T15:08:02;96907.28;;;26.74;34.55
9281;BME280;4679;47.966;7.958;2023-06-05T15:10:07;96914.03;;;26.80;35.01
9281;BME280;4679;47.966;7.958;2023-06-05T15:12:09;96915.97;;;26.80;34.85
9281;BME280;4679;47.966;7.958;2023-06-05T15:14:11;96917.28;;;26.86;34.79
9281;BME280;4679;47.966;7.958;2023-06-05T15:16:12;96914.56;;;27.02;34.92
9281;BME280;4679;47.966;7.958;2023-06-05T15:18:14;96915.00;;;27.04;34.79
9281;BME280;4679;47.966;7.958;2023-06-05T15:20:16;96913.03;;;26.53;35.59
9281;BME280;4679;47.966;7.958;2023-06-05T15:22:17;96913.09;;;25.02;37.93
9281;BME280;4679;47.966;7.958;2023-06-05T15:24:20;96903.38;;;24.07;39.91
9281;BME280;4679;47.966;7.958;2023-06-05T15:26:22;96919.06;;;23.68;41.18
9281;BME280;4679;47.966;7.958;2023-06-05T15:28:24;96923.59;;;23.64;41.47
9281;BME280;4679;47.966;7.958;2023-06-05T15:30:25;96919.56;;;23.49;42.22
9281;BME280;4679;47.966;7.958;2023-06-05T15:32:27;96917.22;;;23.39;42.83
9281;BME280;4679;47.966;7.958;2023-06-05T15:34:29;96922.72;;;23.31;43.25
9281;BME280;4679;47.966;7.958;2023-06-05T15:36:30;96933.81;;;23.17;43.88
9281;BME280;4679;47.966;7.958;2023-06-05T15:38:32;96928.56;;;22.91;44.83
9281;BME280;4679;47.966;7.958;2023-06-05T15:40:35;96935.22;;;22.18;46.58
9281;BME280;4679;47.966;7.958;2023-06-05T15:42:37;96933.84;;;21.77;47.27
9281;BME280;4679;47.966;7.958;2023-06-05T15:44:39;96930.53;;;21.28;49.24
9281;BME280;4679;47.966;7.958;2023-06-05T15:46:40;96923.50;;;20.93;50.09
9281;BME280;4679;47.966;7.958;2023-06-05T15:48:42;96940.72;;;20.75;50.84
9281;BME280;4679;47.966;7.958;2023-06-05T15:50:44;96936.63;;;20.77;51.28
9281;BME280;4679;47.966;7.958;2023-06-05T15:52:45;96935.34;;;20.75;51.81
9281;BME280;4679;47.966;7.958;2023-06-05T15:54:47;96938.41;;;20.90;51.84
9281;BME280;4679;47.966;7.958;2023-06-05T15:57:02;96923.59;;;20.70;52.63
9281;BME280;4679;47.966;7.958;2023-06-05T15:59:03;96919.34;;;20.39;53.94
9281;BME280;4679;47.966;7.958;2023-06-05T16:01:05;96918.81;;;20.28;54.49
9281;BME280;4679;47.966;7.958;2023-06-05T16:03:07;96915.44;;;20.22;54.91
9281;BME280;4679;47.966;7.958;2023-06-05T16:05:10;96915.06;;;20.07;55.17
9281;BME280;4679;47.966;7.958;2023-06-05T16:07:11;96922.53;;;19.87;55.93
9281;BME280;4679;47.966;7.958;2023-06-05T16:09:13;96909.47;;;19.72;56.42
9281;BME280;4679;47.966;7.958;2023-06-05T16:11:15;96912.34;;;19.53;57.32
9281;BME280;4679;47.966;7.958;2023-06-05T16:13:18;96920.50;;;19.48;57.67
9281;BME280;4679;47.966;7.958;2023-06-05T16:15:21;96924.41;;;19.42;58.11
9281;BME280;4679;47.966;7.958;2023-06-05T16:17:23;96932.78;;;19.54;58.18
9281;BME280;4679;47.966;7.958;2023-06-05T16:19:24;96930.53;;;19.70;58.05
9281;BME280;4679;47.966;7.958;2023-06-05T16:21:26;96925.38;;;19.82;58.14
9281;BME280;4679;47.966;7.958;2023-06-05T16:23:28;96931.28;;;19.93;58.47
9281;BME280;4679;47.966;7.958;2023-06-05T16:25:29;96935.91;;;19.70;59.06
9281;BME280;4679;47.966;7.958;2023-06-05T16:27:31;96944.53;;;19.45;60.01
9281;BME280;4679;47.966;7.958;2023-06-05T16:29:34;96935.97;;;19.43;60.35
9281;BME280;4679;47.966;7.958;2023-06-05T16:31:36;96942.28;;;19.52;60.39
9281;BME280;4679;47.966;7.958;2023-06-05T16:33:37;96934.25;;;19.60;60.58
9281;BME280;4679;47.966;7.958;2023-06-05T16:35:39;96932.84;;;19.63;60.63
9281;BME280;4679;47.966;7.958;2023-06-05T16:37:40;96939.81;;;19.64;60.99
9281;BME280;4679;47.966;7.958;2023-06-05T16:39:42;96934.47;;;19.73;61.39
9281;BME280;4679;47.966;7.958;2023-06-05T16:41:44;96940.59;;;19.87;61.18
9281;BME280;4679;47.966;7.958;2023-06-05T16:43:46;96943.06;;;19.97;61.24
9281;BME280;4679;47.966;7.958;2023-06-05T16:45:49;96943.28;;;20.09;61.42
9281;BME280;4679;47.966;7.958;2023-06-05T16:47:54;96953.63;;;19.93;61.67
9281;BME280;4679;47.966;7.958;2023-06-05T16:49:56;96957.13;;;19.72;62.52
9281;BME280;4679;47.966;7.958;2023-06-05T16:51:58;96962.88;;;19.79;62.80
9281;BME280;4679;47.966;7.958;2023-06-05T16:53:59;96965.56;;;19.56;63.29
9281;BME280;4679;47.966;7.958;2023-06-05T16:56:01;96979.22;;;19.46;63.92
9281;BME280;4679;47.966;7.958;2023-06-05T16:58:03;96975.00;;;19.31;64.17
9281;BME280;4679;47.966;7.958;2023-06-05T17:00:06;96973.00;;;19.37;64.32
9281;BME280;4679;47.966;7.958;2023-06-05T17:02:10;96965.94;;;19.63;63.85
9281;BME280;4679;47.966;7.958;2023-06-05T17:04:12;96964.84;;;19.87;63.90